Time;durP1;ratioP1;P1;durP2;ratioP2;P2;SDS_P1;SDS_P2;PMS_P1;PMS_P2;Temp;Humidity;BMP_temperature;BMP_pressure;BME280_temperature;BME280_humidity;BME280_pressure;Samples;Min_cycle;Max_cycle;Signal;HPM_P1;HPM_P2
2022/01/10 00:00:36;;;;;;;5.13;4.40;;;;;;;;;;6173988;23;20182;-87
2022/01/10 00:03:04;;;;;;;6.13;4.83;;;;;;;;;;6177559;23;20193;-87
2022/01/10 00:05:31;;;;;;;6.17;4.73;;;;;;;;;;6172193;23;20178;-87
2022/01/10 00:08:02;;;;;;;6.23;4.53;;;;;;;;;;6167377;23;20225;-86
2022/01/10 00:10:30;;;;;;;5.23;4.40;;;;;;;;;;6168607;23;20265;-87
2022/01/10 00:12:58;;;;;;;5.57;4.70;;;;;;;;;;6167661;23;20206;-87
2022/01/10 00:15:26;;;;;;;6.57;4.50;;;;;;;;;;6168036;23;20178;-85
2022/01/10 00:17:54;;;;;;;6.57;4.63;;;;;;;;;;6168606;23;20213;-86
2022/01/10 00:20:21;;;;;;;5.73;4.20;;;;;;;;;;6167892;23;20205;-86
2022/01/10 00:22:50;;;;;;;7.47;5.00;;;;;;;;;;6167659;23;20717;-87
2022/01/10 00:25:18;;;;;;;5.10;4.53;;;;;;;;;;6167445;23;20174;-87
2022/01/10 00:27:53;;;;;;;7.13;4.90;;;;;;;;;;6166669;23;20174;-87
2022/01/10 00:30:21;;;;;;;5.30;4.80;;;;;;;;;;6166992;23;20194;-86
2022/01/10 00:32:54;;;;;;;4.67;4.27;;;;;;;;;;6165767;23;20194;-86
2022/01/10 00:35:23;;;;;;;5.53;4.57;;;;;;;;;;6167683;23;20167;-86
2022/01/10 00:37:51;;;;;;;6.63;4.50;;;;;;;;;;6165930;23;20187;-86
2022/01/10 00:40:21;;;;;;;4.77;4.33;;;;;;;;;;6166497;23;20207;-85
2022/01/10 00:42:55;;;;;;;5.03;4.07;;;;;;;;;;6167124;23;20207;-86
2022/01/10 00:45:27;;;;;;;6.77;4.67;;;;;;;;;;6167039;23;20175;-86
2022/01/10 00:47:55;;;;;;;5.90;4.37;;;;;;;;;;6166817;23;20234;-86
2022/01/10 00:50:24;;;;;;;4.57;4.17;;;;;;;;;;6166113;23;20199;-86
2022/01/10 00:52:52;;;;;;;4.33;3.80;;;;;;;;;;6165621;23;20226;-86
2022/01/10 00:55:19;;;;;;;4.87;4.27;;;;;;;;;;6166115;23;20186;-86
2022/01/10 00:57:46;;;;;;;4.43;4.03;;;;;;;;;;6168596;23;20190;-86
2022/01/10 01:00:17;;;;;;;5.37;4.27;;;;;;;;;;6168703;23;20205;-86
2022/01/10 01:02:44;;;;;;;4.27;3.87;;;;;;;;;;6169198;23;20174;-86
2022/01/10 01:05:13;;;;;;;6.67;4.30;;;;;;;;;;6169374;23;20175;-86
2022/01/10 01:07:40;;;;;;;4.90;4.40;;;;;;;;;;6168970;23;20177;-86
2022/01/10 01:10:32;;;;;;;5.40;4.40;;;;;;;;;;6169538;23;20259;-86
2022/01/10 01:13:03;;;;;;;5.13;4.63;;;;;;;;;;6169288;23;20181;-86
2022/01/10 01:15:44;;;;;;;5.03;4.53;;;;;;;;;;6172576;23;20167;-86
2022/01/10 01:18:19;;;;;;;4.93;4.10;;;;;;;;;;6171136;23;20225;-86
2022/01/10 01:24:00;;;;;;;5.60;4.20;;;;;;;;;;6167050;23;20194;-86
2022/01/10 01:26:19;;;;;;;5.37;4.07;;;;;;;;;;6168670;23;20185;-86
2022/01/10 01:28:47;;;;;;;5.37;3.87;;;;;;;;;;6167528;23;20193;-86
2022/01/10 01:31:15;;;;;;;4.97;3.90;;;;;;;;;;6167559;23;20195;-86
2022/01/10 01:33:43;;;;;;;6.20;4.20;;;;;;;;;;6168109;23;20174;-86
2022/01/10 01:36:12;;;;;;;5.10;4.17;;;;;;;;;;6167372;23;20182;-86
2022/01/10 01:38:40;;;;;;;4.87;4.17;;;;;;;;;;6167487;23;20198;-86
2022/01/10 01:41:21;;;;;;;4.90;4.20;;;;;;;;;;6166743;23;20285;-87
2022/01/10 01:43:50;;;;;;;4.37;3.97;;;;;;;;;;6167342;23;20178;-86
2022/01/10 01:46:19;;;;;;;6.60;4.07;;;;;;;;;;6166448;23;20194;-86
2022/01/10 01:48:46;;;;;;;5.50;4.07;;;;;;;;;;6166783;23;20178;-86
2022/01/10 01:51:14;;;;;;;4.73;4.30;;;;;;;;;;6165225;23;20218;-86
2022/01/10 01:53:41;;;;;;;5.73;4.17;;;;;;;;;;6166161;23;20602;-85
2022/01/10 01:56:10;;;;;;;5.83;4.27;;;;;;;;;;6167310;23;20202;-86
2022/01/10 01:58:38;;;;;;;5.90;4.33;;;;;;;;;;6165045;23;20201;-85
2022/01/10 02:01:06;;;;;;;6.93;3.90;;;;;;;;;;6163862;23;20206;-85
2022/01/10 02:03:38;;;;;;;4.40;4.00;;;;;;;;;;6166352;23;20180;-86
2022/01/10 02:06:05;;;;;;;5.47;4.20;;;;;;;;;;6164949;23;20155;-85
2022/01/10 02:08:33;;;;;;;6.20;4.37;;;;;;;;;;6164154;23;20171;-85
2022/01/10 02:11:00;;;;;;;6.07;4.00;;;;;;;;;;6162956;23;20245;-85
2022/01/10 02:13:28;;;;;;;5.23;4.57;;;;;;;;;;6164021;23;20175;-87
2022/01/10 02:15:59;;;;;;;9.43;4.63;;;;;;;;;;6163757;23;20249;-86
2022/01/10 02:18:27;;;;;;;6.03;4.30;;;;;;;;;;6163763;23;20201;-86
2022/01/10 02:20:57;;;;;;;6.23;3.90;;;;;;;;;;6164141;23;20195;-85
2022/01/10 02:23:25;;;;;;;8.03;4.10;;;;;;;;;;6166207;23;20179;-85
2022/01/10 02:25:52;;;;;;;5.83;4.13;;;;;;;;;;6166955;23;20181;-85
2022/01/10 02:28:19;;;;;;;5.87;3.77;;;;;;;;;;6167684;23;20184;-85
2022/01/10 02:30:47;;;;;;;4.53;3.53;;;;;;;;;;6165897;23;20245;-86
2022/01/10 02:33:14;;;;;;;5.37;3.77;;;;;;;;;;6168328;23;20225;-85
2022/01/10 02:35:49;;;;;;;5.97;4.10;;;;;;;;;;6169373;23;20174;-85
2022/01/10 02:38:18;;;;;;;4.87;3.90;;;;;;;;;;6169220;23;20217;-86
2022/01/10 02:40:47;;;;;;;4.73;3.97;;;;;;;;;;6168495;23;20213;-85
2022/01/10 02:43:14;;;;;;;4.93;4.53;;;;;;;;;;6169428;23;20229;-85
2022/01/10 02:45:41;;;;;;;5.20;4.47;;;;;;;;;;6169523;23;20194;-85
2022/01/10 02:48:10;;;;;;;4.47;4.07;;;;;;;;;;6169282;23;20177;-85
2022/01/10 02:50:39;;;;;;;7.70;3.93;;;;;;;;;;6169107;23;20206;-85
2022/01/10 02:53:07;;;;;;;5.33;4.20;;;;;;;;;;6169843;23;20189;-86
2022/01/10 02:55:35;;;;;;;5.43;4.60;;;;;;;;;;6170514;23;20174;-85
2022/01/10 02:58:03;;;;;;;7.07;4.43;;;;;;;;;;6170796;23;20254;-87
2022/01/10 03:00:30;;;;;;;5.80;4.30;;;;;;;;;;6169955;23;20226;-84
2022/01/10 03:02:58;;;;;;;4.87;4.37;;;;;;;;;;6180752;23;20162;-87
2022/01/10 03:05:26;;;;;;;7.27;4.63;;;;;;;;;;6167790;23;20171;-84
2022/01/10 03:07:55;;;;;;;5.03;4.53;;;;;;;;;;6157268;23;20203;-85
2022/01/10 03:10:23;;;;;;;5.47;4.67;;;;;;;;;;6163484;23;20194;-87
2022/01/10 03:12:52;;;;;;;5.93;4.47;;;;;;;;;;6178238;23;20178;-86
2022/01/10 03:15:19;;;;;;;4.70;4.20;;;;;;;;;;6178627;23;20181;-86
2022/01/10 03:17:48;;;;;;;6.20;4.73;;;;;;;;;;6164535;23;20174;-85
2022/01/10 03:20:16;;;;;;;4.80;4.30;;;;;;;;;;6161126;23;20194;-85
2022/01/10 03:22:43;;;;;;;6.23;4.17;;;;;;;;;;6161011;23;20182;-85
2022/01/10 03:25:11;;;;;;;5.57;4.53;;;;;;;;;;6162293;23;20182;-86
2022/01/10 03:27:38;;;;;;;6.63;4.30;;;;;;;;;;6161961;23;20175;-85
2022/01/10 03:30:07;;;;;;;5.00;4.47;;;;;;;;;;6163300;23;20277;-84
2022/01/10 03:32:35;;;;;;;4.93;4.43;;;;;;;;;;6162723;23;20201;-85
2022/01/10 03:35:02;;;;;;;5.67;4.13;;;;;;;;;;6163490;23;20202;-85
2022/01/10 03:37:29;;;;;;;5.30;4.60;;;;;;;;;;6163523;23;20206;-85
2022/01/10 03:39:56;;;;;;;7.33;4.70;;;;;;;;;;6164049;23;20210;-85
2022/01/10 03:42:24;;;;;;;4.97;4.40;;;;;;;;;;6149970;23;20202;-86
2022/01/10 03:44:51;;;;;;;5.73;4.70;;;;;;;;;;6154919;23;20171;-87
2022/01/10 03:47:21;;;;;;;6.47;4.50;;;;;;;;;;6155413;23;20202;-86
2022/01/10 03:49:49;;;;;;;5.33;4.43;;;;;;;;;;6156659;23;20250;-87
2022/01/10 03:52:16;;;;;;;5.60;4.70;;;;;;;;;;6160238;23;20194;-86
2022/01/10 03:54:43;;;;;;;6.10;4.57;;;;;;;;;;6158364;23;20174;-87
2022/01/10 03:57:11;;;;;;;7.90;4.90;;;;;;;;;;6156251;23;20171;-86
2022/01/10 03:59:38;;;;;;;6.60;4.70;;;;;;;;;;6155669;23;20202;-86
2022/01/10 04:02:06;;;;;;;5.33;4.83;;;;;;;;;;6154833;23;20217;-87
2022/01/10 04:04:36;;;;;;;5.07;4.57;;;;;;;;;;6158098;23;20182;-86
2022/01/10 04:07:04;;;;;;;5.90;4.70;;;;;;;;;;6155166;23;20170;-88
2022/01/10 04:09:31;;;;;;;5.13;4.63;;;;;;;;;;6157539;23;20171;-87
2022/01/10 04:11:58;;;;;;;5.03;4.50;;;;;;;;;;6173274;23;20199;-88
2022/01/10 04:14:25;;;;;;;6.90;5.10;;;;;;;;;;6166970;23;20178;-86
2022/01/10 04:16:53;;;;;;;6.00;4.60;;;;;;;;;;6156606;23;20178;-87
2022/01/10 04:19:20;;;;;;;5.60;4.60;;;;;;;;;;6156101;23;20190;-86
2022/01/10 04:21:49;;;;;;;6.33;4.27;;;;;;;;;;6156527;23;20201;-86
2022/01/10 04:24:18;;;;;;;4.90;4.40;;;;;;;;;;6157332;23;20198;-88
2022/01/10 04:26:46;;;;;;;6.10;4.57;;;;;;;;;;6161376;23;20182;-86
2022/01/10 04:29:14;;;;;;;5.67;4.77;;;;;;;;;;6161338;23;20170;-86
2022/01/10 04:31:41;;;;;;;5.87;5.00;;;;;;;;;;6160460;23;20222;-87
2022/01/10 04:34:08;;;;;;;6.97;5.73;;;;;;;;;;6164593;23;20182;-87
2022/01/10 04:36:35;;;;;;;5.50;5.00;;;;;;;;;;6173564;23;20174;-86
2022/01/10 04:39:05;;;;;;;6.73;5.17;;;;;;;;;;6170420;23;20201;-86
2022/01/10 04:41:33;;;;;;;5.60;4.97;;;;;;;;;;6161333;23;20194;-88
2022/01/10 04:44:00;;;;;;;5.93;4.77;;;;;;;;;;6161101;23;20194;-87
2022/01/10 04:46:28;;;;;;;7.67;5.27;;;;;;;;;;6161624;23;20174;-86
2022/01/10 04:49:02;;;;;;;6.27;5.30;;;;;;;;;;6163018;23;20181;-88
2022/01/10 04:51:31;;;;;;;6.87;5.10;;;;;;;;;;6161015;23;20271;-87
2022/01/10 04:53:58;;;;;;;7.07;4.57;;;;;;;;;;6160887;23;20186;-87
2022/01/10 04:56:27;;;;;;;7.00;5.27;;;;;;;;;;6161633;23;20174;-87
2022/01/10 04:58:55;;;;;;;6.33;5.37;;;;;;;;;;6159367;23;20198;-86
2022/01/10 05:01:24;;;;;;;6.53;5.20;;;;;;;;;;6154532;23;20194;-87
2022/01/10 05:03:51;;;;;;;5.90;5.27;;;;;;;;;;6155720;23;20214;-86
2022/01/10 05:06:18;;;;;;;6.13;5.37;;;;;;;;;;6155277;23;20191;-86
2022/01/10 05:08:46;;;;;;;6.43;5.10;;;;;;;;;;6155926;23;20182;-86
2022/01/10 05:11:13;;;;;;;7.97;5.00;;;;;;;;;;6155594;23;20217;-86
2022/01/10 05:13:49;;;;;;;7.70;5.50;;;;;;;;;;6155557;23;20171;-86
2022/01/10 05:16:19;;;;;;;7.97;5.07;;;;;;;;;;6155601;23;20193;-88
2022/01/10 05:18:53;;;;;;;6.40;5.40;;;;;;;;;;6155522;23;20274;-87
2022/01/10 05:21:20;;;;;;;7.20;5.47;;;;;;;;;;6154303;23;20221;-86
2022/01/10 05:23:48;;;;;;;6.80;5.83;;;;;;;;;;6155582;23;20175;-86
2022/01/10 05:26:15;;;;;;;6.30;5.03;;;;;;;;;;6155607;23;20175;-86
2022/01/10 05:28:44;;;;;;;5.90;5.30;;;;;;;;;;6156560;23;20624;-86
2022/01/10 05:31:11;;;;;;;5.30;4.80;;;;;;;;;;6156217;23;20217;-86
2022/01/10 05:33:38;;;;;;;7.13;5.50;;;;;;;;;;6156454;23;20261;-86
2022/01/10 05:36:09;;;;;;;6.43;5.40;;;;;;;;;;6155618;23;20171;-86
2022/01/10 05:38:42;;;;;;;6.53;5.33;;;;;;;;;;6155621;23;20186;-86
2022/01/10 05:41:10;;;;;;;8.53;5.63;;;;;;;;;;6154615;23;20238;-86
2022/01/10 05:43:38;;;;;;;7.87;4.90;;;;;;;;;;6155535;23;20162;-86
2022/01/10 05:46:08;;;;;;;8.37;5.80;;;;;;;;;;6156125;23;20178;-86
2022/01/10 05:48:36;;;;;;;7.00;5.53;;;;;;;;;;6155782;23;20174;-86
2022/01/10 05:51:03;;;;;;;6.17;5.50;;;;;;;;;;6155076;23;20273;-86
2022/01/10 05:53:31;;;;;;;7.23;5.43;;;;;;;;;;6156124;23;20174;-87
2022/01/10 05:55:58;;;;;;;6.90;5.17;;;;;;;;;;6157022;23;20190;-86
2022/01/10 05:58:26;;;;;;;7.43;5.53;;;;;;;;;;6153871;23;20234;-86
2022/01/10 06:00:53;;;;;;;6.10;5.50;;;;;;;;;;6154880;23;20208;-85
2022/01/10 06:03:25;;;;;;;6.53;5.30;;;;;;;;;;6155997;23;20182;-86
2022/01/10 06:05:52;;;;;;;9.73;8.67;;;;;;;;;;6156218;23;20202;-86
2022/01/10 06:08:23;;;;;;;10.03;8.50;;;;;;;;;;6158289;23;20204;-86
2022/01/10 06:10:50;;;;;;;10.47;8.67;;;;;;;;;;6158890;23;20199;-85
2022/01/10 06:13:17;;;;;;;8.30;7.50;;;;;;;;;;6160117;23;20176;-86
2022/01/10 06:15:45;;;;;;;9.97;7.67;;;;;;;;;;6158174;23;20198;-86
2022/01/10 06:18:12;;;;;;;10.20;7.77;;;;;;;;;;6158804;23;20175;-86
2022/01/10 06:20:41;;;;;;;12.50;9.57;;;;;;;;;;6158782;23;20197;-86
2022/01/10 06:23:09;;;;;;;14.57;9.30;;;;;;;;;;6157813;23;20233;-86
2022/01/10 06:25:36;;;;;;;14.13;8.90;;;;;;;;;;6157525;23;20202;-85
2022/01/10 06:28:04;;;;;;;13.17;10.40;;;;;;;;;;6160037;23;20217;-86
2022/01/10 06:30:31;;;;;;;14.93;10.30;;;;;;;;;;6158877;23;20171;-88
2022/01/10 06:32:59;;;;;;;15.00;9.80;;;;;;;;;;6160056;23;20171;-86
2022/01/10 06:35:31;;;;;;;14.93;9.83;;;;;;;;;;6158640;23;20189;-85
2022/01/10 06:38:02;;;;;;;16.07;10.43;;;;;;;;;;6157556;23;20206;-88
2022/01/10 06:40:30;;;;;;;15.10;10.07;;;;;;;;;;6156696;23;20675;-87
2022/01/10 06:42:57;;;;;;;18.80;10.87;;;;;;;;;;6156976;23;20170;-86
2022/01/10 06:45:25;;;;;;;16.20;10.67;;;;;;;;;;6158752;23;20175;-87
2022/01/10 06:47:55;;;;;;;17.20;10.57;;;;;;;;;;6157650;23;20175;-84
2022/01/10 06:53:08;;;;;;;19.60;11.10;;;;;;;;;;6152818;23;20198;-87
2022/01/10 06:55:36;;;;;;;19.57;11.20;;;;;;;;;;6157532;23;20559;-88
2022/01/10 06:58:04;;;;;;;19.97;11.43;;;;;;;;;;6156313;23;20175;-87
2022/01/10 07:00:31;;;;;;;15.03;10.53;;;;;;;;;;6155789;23;20261;-89
2022/01/10 07:03:06;;;;;;;17.37;11.47;;;;;;;;;;6157039;23;20181;-88
2022/01/10 07:05:33;;;;;;;17.53;11.13;;;;;;;;;;6157505;23;20166;-88
2022/01/10 07:08:03;;;;;;;17.67;11.57;;;;;;;;;;6157431;23;20233;-88
2022/01/10 07:10:31;;;;;;;18.23;11.23;;;;;;;;;;6158121;23;20233;-89
2022/01/10 07:12:59;;;;;;;19.17;11.23;;;;;;;;;;6158484;23;20175;-89
2022/01/10 07:15:32;;;;;;;21.93;12.63;;;;;;;;;;6159272;23;20181;-88
2022/01/10 07:18:01;;;;;;;19.50;11.57;;;;;;;;;;6157479;23;20171;-88
2022/01/10 07:20:33;;;;;;;18.33;11.63;;;;;;;;;;6156963;23;20194;-88
2022/01/10 07:23:00;;;;;;;18.20;12.27;;;;;;;;;;6156722;23;20155;-88
2022/01/10 07:25:28;;;;;;;19.07;11.63;;;;;;;;;;6156696;23;20175;-89
2022/01/10 07:27:59;;;;;;;22.87;12.43;;;;;;;;;;6159138;23;20174;-89
2022/01/10 07:30:29;;;;;;;20.50;12.20;;;;;;;;;;6157062;23;20163;-88
2022/01/10 07:32:57;;;;;;;23.17;12.40;;;;;;;;;;6158195;23;20178;-89
2022/01/10 07:35:33;;;;;;;23.90;13.10;;;;;;;;;;6159556;23;20171;-89
2022/01/10 07:41:20;;;;;;;18.33;11.87;;;;;;;;;;6160383;23;20209;-90
2022/01/10 07:43:49;;;;;;;22.83;12.20;;;;;;;;;;6203387;23;20168;-92
2022/01/10 07:46:17;;;;;;;22.13;12.53;;;;;;;;;;6197425;23;20170;-90
2022/01/10 07:48:47;;;;;;;23.57;12.47;;;;;;;;;;6165810;23;20171;-87
2022/01/10 07:51:18;;;;;;;22.73;12.73;;;;;;;;;;6162252;23;20278;-89
2022/01/10 07:53:45;;;;;;;19.57;12.30;;;;;;;;;;6163867;23;20175;-85
2022/01/10 07:56:16;;;;;;;18.70;12.07;;;;;;;;;;6162183;23;20174;-83
2022/01/10 07:58:46;;;;;;;20.13;12.07;;;;;;;;;;6162325;23;20175;-84
2022/01/10 08:01:19;;;;;;;20.23;12.23;;;;;;;;;;6163076;23;20201;-84
2022/01/10 08:03:46;;;;;;;23.97;12.87;;;;;;;;;;6162029;23;20304;-85
2022/01/10 08:06:14;;;;;;;18.70;12.63;;;;;;;;;;6169442;23;20174;-85
2022/01/10 08:08:42;;;;;;;17.73;11.87;;;;;;;;;;6165160;23;20174;-86
2022/01/10 08:11:10;;;;;;;20.90;12.53;;;;;;;;;;6158482;23;20193;-86
2022/01/10 08:13:37;;;;;;;19.53;12.97;;;;;;;;;;6159688;23;20240;-85
2022/01/10 08:16:05;;;;;;;20.03;12.07;;;;;;;;;;6160022;23;20225;-85
2022/01/10 08:18:35;;;;;;;17.73;11.73;;;;;;;;;;6160148;23;20174;-84
2022/01/10 08:21:07;;;;;;;18.40;11.77;;;;;;;;;;6157469;23;20222;-88
2022/01/10 08:23:34;;;;;;;19.17;12.47;;;;;;;;;;6157289;23;20221;-87
2022/01/10 08:26:14;;;;;;;16.90;12.30;;;;;;;;;;6157748;23;20233;-87
2022/01/10 08:28:42;;;;;;;20.67;12.43;;;;;;;;;;6158685;23;20170;-86
2022/01/10 08:31:10;;;;;;;20.30;12.97;;;;;;;;;;6161013;23;20198;-85
2022/01/10 08:33:39;;;;;;;21.93;12.73;;;;;;;;;;6161999;23;20245;-85
2022/01/10 08:36:09;;;;;;;21.87;12.77;;;;;;;;;;6158707;23;20181;-85
2022/01/10 08:38:36;;;;;;;19.80;13.37;;;;;;;;;;6159988;23;20170;-85
2022/01/10 08:41:04;;;;;;;20.90;12.40;;;;;;;;;;6159303;23;20199;-85
2022/01/10 08:43:31;;;;;;;20.70;13.00;;;;;;;;;;6157963;23;20234;-86
2022/01/10 08:45:59;;;;;;;20.60;13.40;;;;;;;;;;6159016;23;20233;-85
2022/01/10 08:48:26;;;;;;;24.20;13.83;;;;;;;;;;6157605;23;20183;-84
2022/01/10 08:50:55;;;;;;;21.17;13.03;;;;;;;;;;6156740;23;20195;-85
2022/01/10 08:53:22;;;;;;;19.07;12.63;;;;;;;;;;6157868;23;20175;-85
2022/01/10 08:55:49;;;;;;;20.10;13.00;;;;;;;;;;6157619;23;20178;-85
2022/01/10 08:58:17;;;;;;;22.17;13.30;;;;;;;;;;6160074;23;20175;-85
2022/01/10 09:00:44;;;;;;;19.17;12.57;;;;;;;;;;6158731;23;20202;-84
2022/01/10 09:03:12;;;;;;;16.47;11.30;;;;;;;;;;6159180;23;20174;-83
2022/01/10 09:05:39;;;;;;;18.37;11.43;;;;;;;;;;6157475;23;20175;-85
2022/01/10 09:08:08;;;;;;;14.90;9.63;;;;;;;;;;6158628;23;20198;-85
2022/01/10 09:10:35;;;;;;;15.40;10.50;;;;;;;;;;6160179;23;20182;-84
2022/01/10 09:13:03;;;;;;;17.00;10.70;;;;;;;;;;6158179;23;20229;-84
2022/01/10 09:15:32;;;;;;;13.40;9.63;;;;;;;;;;6157715;23;20175;-85
2022/01/10 09:17:59;;;;;;;17.03;11.10;;;;;;;;;;6158748;23;20181;-85
2022/01/10 09:20:27;;;;;;;16.10;10.83;;;;;;;;;;6157646;23;20257;-85
2022/01/10 09:22:54;;;;;;;14.93;11.07;;;;;;;;;;6157387;23;20178;-85
2022/01/10 09:25:24;;;;;;;17.03;11.07;;;;;;;;;;6159450;23;20178;-86
2022/01/10 09:27:51;;;;;;;17.37;12.10;;;;;;;;;;6160839;23;20183;-86
2022/01/10 09:30:19;;;;;;;19.37;12.07;;;;;;;;;;6159231;23;20171;-86
2022/01/10 09:32:46;;;;;;;16.53;11.33;;;;;;;;;;6158542;23;20195;-86
2022/01/10 09:35:14;;;;;;;17.87;12.20;;;;;;;;;;6159752;23;20249;-85
2022/01/10 09:37:41;;;;;;;22.70;12.57;;;;;;;;;;6161803;23;20174;-85
2022/01/10 09:40:09;;;;;;;16.57;11.23;;;;;;;;;;6160151;23;20186;-85
2022/01/10 09:42:38;;;;;;;14.23;10.23;;;;;;;;;;6150985;23;20199;-82
2022/01/10 09:45:07;;;;;;;16.13;10.80;;;;;;;;;;6158296;23;20171;-81
2022/01/10 09:47:34;;;;;;;16.57;10.57;;;;;;;;;;6159765;23;20197;-80
2022/01/10 09:50:06;;;;;;;14.00;10.23;;;;;;;;;;6160936;23;20177;-82
2022/01/10 09:52:34;;;;;;;13.90;9.73;;;;;;;;;;6156630;23;20293;-81
2022/01/10 09:55:01;;;;;;;11.33;9.63;;;;;;;;;;6158866;23;20174;-80
2022/01/10 09:57:29;;;;;;;14.90;10.27;;;;;;;;;;6161324;23;20171;-79
2022/01/10 10:00:12;;;;;;;12.83;9.80;;;;;;;;;;6161387;23;20174;-81
2022/01/10 10:02:53;;;;;;;14.40;10.27;;;;;;;;;;6160160;23;20195;-82
2022/01/10 10:05:24;;;;;;;16.70;10.87;;;;;;;;;;6163532;23;20151;-82
2022/01/10 10:10:37;;;;;;;15.50;12.03;;;;;;;;;;6161111;23;20174;-79
2022/01/10 10:13:08;;;;;;;15.77;12.17;;;;;;;;;;6162269;23;20207;-82
2022/01/10 10:18:51;;;;;;;17.07;12.60;;;;;;;;;;6156969;23;20207;-84
2022/01/10 10:23:55;;;;;;;19.40;13.00;;;;;;;;;;6218381;23;20181;-82
2022/01/10 10:26:24;;;;;;;16.90;12.93;;;;;;;;;;6221496;23;20200;-82
2022/01/10 10:28:54;;;;;;;18.90;13.37;;;;;;;;;;6218338;23;20206;-81
2022/01/10 10:31:25;;;;;;;16.10;12.40;;;;;;;;;;6217966;23;20189;-82
2022/01/10 10:33:55;;;;;;;17.57;12.80;;;;;;;;;;6220710;23;20176;-81
2022/01/10 10:36:22;;;;;;;16.90;13.57;;;;;;;;;;6220585;23;20198;-82
2022/01/10 10:38:50;;;;;;;16.97;12.10;;;;;;;;;;6220575;23;20185;-82
2022/01/10 10:41:24;;;;;;;20.00;12.20;;;;;;;;;;6220240;23;20212;-82
2022/01/10 10:43:54;;;;;;;17.63;11.43;;;;;;;;;;6218884;23;20173;-81
2022/01/10 10:46:26;;;;;;;14.17;11.07;;;;;;;;;;6220530;23;20248;-82
2022/01/10 10:48:57;;;;;;;17.33;11.93;;;;;;;;;;6221645;23;20192;-81
2022/01/10 10:51:31;;;;;;;15.17;11.73;;;;;;;;;;6220407;23;20193;-82
2022/01/10 10:54:02;;;;;;;18.57;12.63;;;;;;;;;;6221051;23;20221;-82
2022/01/10 10:56:38;;;;;;;13.03;11.13;;;;;;;;;;6220611;23;20244;-83
2022/01/10 10:59:06;;;;;;;17.97;12.90;;;;;;;;;;6219436;23;20196;-82
2022/01/10 11:01:36;;;;;;;15.23;11.90;;;;;;;;;;6218977;23;20200;-82
2022/01/10 11:04:09;;;;;;;17.27;13.00;;;;;;;;;;6219700;23;20204;-82
2022/01/10 11:06:38;;;;;;;16.57;11.33;;;;;;;;;;6218040;23;20173;-81
2022/01/10 11:09:06;;;;;;;13.07;11.17;;;;;;;;;;6218970;23;20173;-81
2022/01/10 11:11:37;;;;;;;14.77;11.63;;;;;;;;;;6219284;23;20193;-82
2022/01/10 11:14:15;;;;;;;13.10;11.60;;;;;;;;;;6216519;23;20225;-81
2022/01/10 11:16:48;;;;;;;15.80;11.30;;;;;;;;;;6218285;23;20180;-80
2022/01/10 11:19:22;;;;;;;16.17;11.10;;;;;;;;;;6217877;23;20166;-81
2022/01/10 11:22:12;;;;;;;13.53;11.30;;;;;;;;;;6216039;23;20204;-80
2022/01/10 11:25:11;;;;;;;12.63;10.23;;;;;;;;;;6216201;23;20177;-80
2022/01/10 11:27:43;;;;;;;16.60;12.17;;;;;;;;;;6215289;23;20637;-82
2022/01/10 11:30:25;;;;;;;14.50;11.30;;;;;;;;;;6221072;23;20173;-81
2022/01/10 11:32:56;;;;;;;12.57;10.47;;;;;;;;;;6215559;23;20201;-81
2022/01/10 11:35:27;;;;;;;13.30;11.00;;;;;;;;;;6221954;23;20166;-81
2022/01/10 11:37:59;;;;;;;15.20;11.67;;;;;;;;;;6221185;23;20173;-81
2022/01/10 11:40:29;;;;;;;15.60;11.30;;;;;;;;;;6220100;23;20183;-79
2022/01/10 11:42:58;;;;;;;13.13;11.47;;;;;;;;;;6220393;23;20241;-81
2022/01/10 11:45:26;;;;;;;14.63;12.20;;;;;;;;;;6220099;23;20173;-83
2022/01/10 11:48:13;;;;;;;13.33;11.70;;;;;;;;;;6220675;23;20173;-81
2022/01/10 11:50:44;;;;;;;15.40;11.40;;;;;;;;;;6220132;23;20168;-80
2022/01/10 11:53:13;;;;;;;15.53;12.03;;;;;;;;;;6222699;23;20279;-81
2022/01/10 11:55:44;;;;;;;13.47;11.03;;;;;;;;;;6219770;23;20173;-82
2022/01/10 11:58:19;;;;;;;12.90;11.30;;;;;;;;;;6220733;23;20177;-80
2022/01/10 12:00:50;;;;;;;12.53;10.23;;;;;;;;;;6220666;23;20181;-83
2022/01/10 12:03:18;;;;;;;12.57;10.33;;;;;;;;;;6221200;23;20175;-80
2022/01/10 12:48:00;;;;;;;17.17;12.33;;;;;;;;;;6097826;23;20250;-82
2022/01/10 12:50:29;;;;;;;16.37;11.57;;;;;;;;;;6124703;23;20178;-82
2022/01/10 13:02:42;;;;;;;16.93;10.67;;;;;;;;;;6079869;23;20212;-82
2022/01/10 13:27:05;;;;;;;17.60;11.33;;;;;;;;;;5906920;24;20721;-81
2022/01/10 13:29:34;;;;;;;12.03;10.43;;;;;;;;;;6003578;23;20173;-84
2022/01/10 13:32:18;;;;;;;14.00;10.77;;;;;;;;;;6110494;23;20194;-82
2022/01/10 13:34:45;;;;;;;13.53;11.27;;;;;;;;;;6162914;23;20246;-85
2022/01/10 13:37:13;;;;;;;13.13;11.27;;;;;;;;;;6160954;23;20181;-83
2022/01/10 13:39:41;;;;;;;14.77;11.30;;;;;;;;;;6160093;23;20230;-84
2022/01/10 13:42:25;;;;;;;16.83;11.37;;;;;;;;;;6158820;23;20202;-83
2022/01/10 13:44:58;;;;;;;11.57;10.07;;;;;;;;;;6158862;23;20170;-83
2022/01/10 13:47:25;;;;;;;14.57;10.90;;;;;;;;;;6159945;23;20159;-83
2022/01/10 13:49:56;;;;;;;15.40;10.83;;;;;;;;;;6163407;23;20202;-84
2022/01/10 13:52:23;;;;;;;13.10;10.30;;;;;;;;;;6173343;23;20205;-81
2022/01/10 13:54:53;;;;;;;12.17;10.63;;;;;;;;;;6155975;23;20175;-83
2022/01/10 13:57:30;;;;;;;15.93;11.03;;;;;;;;;;6155908;23;20245;-83
2022/01/10 14:00:18;;;;;;;15.70;11.50;;;;;;;;;;6156149;23;20166;-82
2022/01/10 14:02:50;;;;;;;12.43;9.93;;;;;;;;;;6155035;23;20249;-83
2022/01/10 14:05:25;;;;;;;15.53;10.37;;;;;;;;;;6156756;23;20186;-84
2022/01/10 14:07:53;;;;;;;13.00;10.40;;;;;;;;;;6157251;23;20232;-83
2022/01/10 14:10:34;;;;;;;11.93;9.53;;;;;;;;;;6156447;23;20175;-84
2022/01/10 14:13:06;;;;;;;13.33;10.10;;;;;;;;;;6158724;23;20187;-83
2022/01/10 14:15:35;;;;;;;15.40;10.67;;;;;;;;;;6155958;23;20175;-82
2022/01/10 14:18:07;;;;;;;16.33;10.70;;;;;;;;;;6155732;23;20238;-83
2022/01/10 14:20:37;;;;;;;12.83;9.73;;;;;;;;;;6125918;23;20175;-83
2022/01/10 14:29:40;;;;;;;;;;;;;;;;;;;;;
2022/01/10 14:38:16;;;;;;;16.47;11.40;;;;;;;;;;6039539;23;20177;-82
2022/01/10 14:44:01;;;;;;;12.23;10.60;;;;;;;;;;6035573;23;20173;-83
2022/01/10 14:49:29;;;;;;;14.43;10.77;;;;;;;;;;6040182;23;20183;-82
2022/01/10 14:52:04;;;;;;;20.60;13.43;;;;;;;;;;6040674;23;20193;-81
2022/01/10 14:54:36;;;;;;;17.17;12.47;;;;;;;;;;6040486;23;20192;-84
2022/01/10 14:57:04;;;;;;;15.83;11.17;;;;;;;;;;6041196;23;20256;-82
2022/01/10 15:02:23;;;;;;;18.57;12.07;;;;;;;;;;6036376;23;20386;-82
2022/01/10 15:04:51;;;;;;;15.83;11.87;;;;;;;;;;6049284;23;20180;-84
2022/01/10 15:07:24;;;;;;;17.07;11.40;;;;;;;;;;6130079;23;20179;-83
2022/01/10 15:09:54;;;;;;;16.73;11.27;;;;;;;;;;6131158;23;20167;-82
2022/01/10 15:12:22;;;;;;;18.10;12.20;;;;;;;;;;6129904;23;20247;-83
2022/01/10 15:14:49;;;;;;;18.43;13.20;;;;;;;;;;6130238;23;20175;-82
2022/01/10 15:19:57;;;;;;;17.30;11.80;;;;;;;;;;6127465;23;20185;-82
2022/01/10 15:22:29;;;;;;;21.73;14.17;;;;;;;;;;6129903;23;20222;-83
2022/01/10 15:24:58;;;;;;;19.30;13.87;;;;;;;;;;6131139;23;20183;-83
2022/01/10 15:27:29;;;;;;;26.83;18.90;;;;;;;;;;6129786;23;20175;-82
2022/01/10 15:29:56;;;;;;;19.67;13.00;;;;;;;;;;6130169;23;20197;-83
2022/01/10 15:32:35;;;;;;;19.13;12.63;;;;;;;;;;6129829;23;20191;-83
2022/01/10 15:35:07;;;;;;;18.17;12.90;;;;;;;;;;6131077;23;20175;-82
2022/01/10 15:37:38;;;;;;;17.43;13.87;;;;;;;;;;6132665;23;20171;-83
2022/01/10 15:40:09;;;;;;;23.17;17.90;;;;;;;;;;6130345;23;20156;-83
2022/01/10 15:42:46;;;;;;;19.40;13.80;;;;;;;;;;6138329;23;20202;-83
2022/01/10 15:45:13;;;;;;;18.73;13.30;;;;;;;;;;6160705;23;20239;-83
2022/01/10 15:47:43;;;;;;;18.47;12.83;;;;;;;;;;6162064;23;20197;-82
2022/01/10 15:50:11;;;;;;;20.37;13.43;;;;;;;;;;6161568;23;20175;-84
2022/01/10 15:52:42;;;;;;;21.00;14.53;;;;;;;;;;6161898;23;20190;-81
2022/01/10 15:55:10;;;;;;;30.27;19.07;;;;;;;;;;6162733;23;20170;-83
2022/01/10 15:57:37;;;;;;;22.47;15.57;;;;;;;;;;6161719;23;20178;-84
2022/01/10 16:00:05;;;;;;;20.20;14.00;;;;;;;;;;6160080;23;20174;-83
2022/01/10 16:02:34;;;;;;;23.90;14.20;;;;;;;;;;6160483;23;20246;-81
2022/01/10 16:05:01;;;;;;;18.53;14.10;;;;;;;;;;6161684;23;20174;-82
2022/01/10 16:07:29;;;;;;;21.43;14.57;;;;;;;;;;6162989;23;20170;-82
2022/01/10 16:10:03;;;;;;;20.47;14.60;;;;;;;;;;6161757;23;20259;-83
2022/01/10 16:12:34;;;;;;;19.70;13.57;;;;;;;;;;6160509;23;20194;-86
2022/01/10 16:15:06;;;;;;;22.03;13.67;;;;;;;;;;6162439;23;20175;-83
2022/01/10 16:17:35;;;;;;;23.33;14.50;;;;;;;;;;6161147;23;20175;-84
2022/01/10 16:20:10;;;;;;;21.60;13.70;;;;;;;;;;6162214;23;20253;-86
2022/01/10 16:22:38;;;;;;;21.50;14.00;;;;;;;;;;6159371;23;20201;-83
2022/01/10 16:25:08;;;;;;;22.17;15.63;;;;;;;;;;6161267;23;20181;-83
2022/01/10 16:27:35;;;;;;;21.20;13.90;;;;;;;;;;6161271;23;20234;-83
2022/01/10 16:30:03;;;;;;;20.17;13.73;;;;;;;;;;6161557;23;20174;-85
2022/01/10 16:32:30;;;;;;;21.83;15.20;;;;;;;;;;6158603;23;20265;-82
2022/01/10 16:34:58;;;;;;;23.30;14.80;;;;;;;;;;6159350;23;20181;-80
2022/01/10 16:37:25;;;;;;;22.90;15.33;;;;;;;;;;6157513;23;20230;-86